createdAt,value
2018-08-08T00:00:01.017Z,53.26
2018-08-08T00:01:06.570Z,53.14
2018-08-08T00:02:12.113Z,53.94
2018-08-08T00:03:17.657Z,54.52
2018-08-08T00:04:23.198Z,54.59
2018-08-08T00:05:28.749Z,53.94
2018-08-08T00:06:34.295Z,53.04
2018-08-08T00:07:39.840Z,54.62
2018-08-08T00:08:45.383Z,55.46
2018-08-08T00:09:51.015Z,54.79
2018-08-08T00:10:56.476Z,54.98
2018-08-08T00:12:02.023Z,56.04
2018-08-08T00:13:07.568Z,56.92
2018-08-08T00:14:13.114Z,56.82
2018-08-08T00:15:18.665Z,56.34
2018-08-08T00:16:24.209Z,57.01
2018-08-08T00:17:29.752Z,56.14
2018-08-08T00:18:35.299Z,58.47
2018-08-08T00:19:40.840Z,58.95
2018-08-08T00:20:46.395Z,59.63
2018-08-08T00:21:51.936Z,58.82
2018-08-08T00:22:57.477Z,59.01
2018-08-08T00:24:03.023Z,59.31
2018-08-08T00:25:08.571Z,59.69
2018-08-08T00:26:14.114Z,59.31
2018-08-08T00:27:19.668Z,59.11
2018-08-08T00:28:25.207Z,60.37
2018-08-08T00:29:30.760Z,59.50
2018-08-08T00:30:36.302Z,60.17
2018-08-08T00:31:41.850Z,60.47
2018-08-08T00:32:47.389Z,61.05
2018-08-08T00:33:52.942Z,60.92
2018-08-08T00:34:58.487Z,60.34
2018-08-08T00:36:04.027Z,60.82
2018-08-08T00:37:09.573Z,58.98
2018-08-08T00:38:15.121Z,58.70
2018-08-08T00:39:20.665Z,59.28
2018-08-08T00:40:26.216Z,59.95
2018-08-08T00:41:31.768Z,59.66
2018-08-08T00:42:37.302Z,59.56
2018-08-08T00:43:42.849Z,59.47
2018-08-08T00:44:48.398Z,58.98
2018-08-08T00:45:53.941Z,58.12
2018-08-08T00:46:59.490Z,60.63
2018-08-08T00:48:05.034Z,60.34
2018-08-08T00:49:10.583Z,60.63
2018-08-08T00:50:16.125Z,60.53
2018-08-08T00:51:21.672Z,59.76
2018-08-08T00:52:27.218Z,60.53
2018-08-08T00:53:32.760Z,60.63
2018-08-08T00:54:38.301Z,59.56
2018-08-08T00:55:43.844Z,60.24
2018-08-08T00:56:49.398Z,60.34
2018-08-08T00:57:54.935Z,59.47
2018-08-08T00:59:00.488Z,60.72
2018-08-08T01:00:06.032Z,60.72
2018-08-08T01:01:11.573Z,60.53
2018-08-08T01:02:17.125Z,59.66
2018-08-08T01:03:22.669Z,60.14
2018-08-08T01:04:28.213Z,60.14
2018-08-08T01:05:33.756Z,60.21
2018-08-08T01:06:39.300Z,59.15
2018-08-08T01:07:44.856Z,60.69
2018-08-08T01:08:50.500Z,60.11
2018-08-08T01:09:55.940Z,61.86
2018-08-08T01:11:01.482Z,62.24
2018-08-08T01:12:07.038Z,61.95
2018-08-08T01:13:12.570Z,61.83
2018-08-08T01:14:18.119Z,61.05
2018-08-08T01:15:23.664Z,62.21
2018-08-08T01:16:29.205Z,64.05
2018-08-08T01:17:34.757Z,61.92
2018-08-08T01:18:40.301Z,63.28
2018-08-08T01:19:45.844Z,62.02
2018-08-08T01:20:51.391Z,63.76
2018-08-08T01:21:56.930Z,63.63
2018-08-08T01:23:02.478Z,62.76
2018-08-08T01:24:08.028Z,64.59
2018-08-08T01:25:13.569Z,65.27
2018-08-08T01:26:19.118Z,64.21
2018-08-08T01:27:24.658Z,64.31
2018-08-08T01:28:30.207Z,65.17
2018-08-08T01:29:35.752Z,65.40
2018-08-08T01:30:41.295Z,65.40
2018-08-08T01:31:46.844Z,63.63
2018-08-08T01:32:52.389Z,65.47
2018-08-08T01:33:57.934Z,64.79
2018-08-08T01:35:03.477Z,65.85
2018-08-08T01:36:09.019Z,65.75
2018-08-08T01:37:14.568Z,67.78
2018-08-08T01:38:20.116Z,67.27
2018-08-08T01:39:25.656Z,67.46
2018-08-08T01:40:31.199Z,67.65
2018-08-08T01:41:36.744Z,69.00
2018-08-08T01:42:42.292Z,67.46
2018-08-08T01:43:47.839Z,67.85
2018-08-08T01:44:53.376Z,67.55
2018-08-08T01:45:59.015Z,67.46
2018-08-08T01:47:04.469Z,68.52
2018-08-08T01:48:10.013Z,69.10
2018-08-08T01:49:15.565Z,69.10
2018-08-08T01:50:21.102Z,68.43
2018-08-08T01:51:26.658Z,68.33
2018-08-08T01:52:32.195Z,68.04
2018-08-08T01:53:37.736Z,66.11
2018-08-08T01:54:43.284Z,66.01
2018-08-08T01:55:48.823Z,65.53
2018-08-08T01:56:54.372Z,65.14
2018-08-08T01:57:59.919Z,65.91
2018-08-08T01:59:05.463Z,66.69
2018-08-08T02:00:11.011Z,65.72
2018-08-08T02:01:16.553Z,67.17
2018-08-08T02:02:22.094Z,65.91
2018-08-08T02:03:27.639Z,65.34
2018-08-08T02:04:33.184Z,64.28
2018-08-08T02:05:38.726Z,65.24
2018-08-08T02:06:44.272Z,65.14
2018-08-08T02:07:49.820Z,66.30
2018-08-08T02:08:55.365Z,65.72
2018-08-08T02:10:00.901Z,65.37
2018-08-08T02:11:06.452Z,65.91
2018-08-08T02:12:11.994Z,65.14
2018-08-08T02:13:17.545Z,65.34
2018-08-08T02:14:23.080Z,65.24
2018-08-08T02:15:28.628Z,65.05
2018-08-08T02:16:34.175Z,65.24
2018-08-08T02:17:39.721Z,67.55
2018-08-08T02:18:45.265Z,67.46
2018-08-08T02:19:50.810Z,67.17
2018-08-08T02:20:56.352Z,67.65
2018-08-08T02:22:01.897Z,67.46
2018-08-08T02:23:07.444Z,68.52
2018-08-08T02:24:12.992Z,69.93
2018-08-08T02:25:18.526Z,70.13
2018-08-08T02:26:24.078Z,70.51
2018-08-08T02:27:29.621Z,69.74
2018-08-08T02:28:35.164Z,70.22
2018-08-08T02:29:40.708Z,70.42
2018-08-08T02:30:46.249Z,69.71
2018-08-08T02:31:51.796Z,70.19
2018-08-08T02:32:57.339Z,69.90
2018-08-08T02:34:02.884Z,68.65
2018-08-08T02:35:08.429Z,70.57
2018-08-08T02:36:13.988Z,70.09
2018-08-08T02:37:19.536Z,69.23
2018-08-08T02:38:25.069Z,69.55
2018-08-08T02:39:30.612Z,69.07
2018-08-08T02:40:36.153Z,68.49
2018-08-08T02:41:41.695Z,69.07
2018-08-08T02:42:47.240Z,70.61
2018-08-08T02:43:52.785Z,69.45
2018-08-08T02:44:58.331Z,70.13
2018-08-08T02:46:03.869Z,70.90
2018-08-08T02:47:09.431Z,70.80
2018-08-08T02:48:14.960Z,71.25
2018-08-08T02:49:20.510Z,70.96
2018-08-08T02:50:26.054Z,72.02
2018-08-08T02:51:31.590Z,71.64
2018-08-08T02:52:37.136Z,71.83
2018-08-08T02:53:42.682Z,72.41
2018-08-08T02:54:48.230Z,72.60
2018-08-08T02:55:53.771Z,72.12
2018-08-08T02:56:59.312Z,71.64
2018-08-08T02:58:04.859Z,71.34
2018-08-08T02:59:10.406Z,70.86
2018-08-08T03:00:15.949Z,71.22
2018-08-08T03:01:21.489Z,71.44
2018-08-08T03:02:27.034Z,71.64
2018-08-08T03:03:32.576Z,71.73
2018-08-08T03:04:38.126Z,73.05
2018-08-08T03:05:43.666Z,72.47
2018-08-08T03:06:49.213Z,71.70
2018-08-08T03:07:54.757Z,72.41
2018-08-08T03:09:00.300Z,72.56
2018-08-08T03:10:05.849Z,71.73
2018-08-08T03:11:11.385Z,72.31
2018-08-08T03:12:16.929Z,71.92
2018-08-08T03:13:22.478Z,72.02
2018-08-08T03:14:28.024Z,72.02
2018-08-08T03:15:33.568Z,71.83
2018-08-08T03:16:39.103Z,71.64
2018-08-08T03:17:44.649Z,71.98
2018-08-08T03:18:50.199Z,72.41
2018-08-08T03:19:55.739Z,71.73
2018-08-08T03:21:01.279Z,72.37
2018-08-08T03:22:06.826Z,72.21
2018-08-08T03:23:12.378Z,71.54
2018-08-08T03:24:17.915Z,71.83
2018-08-08T03:25:23.457Z,71.89
2018-08-08T03:26:29.009Z,71.83
2018-08-08T03:27:34.550Z,72.31
2018-08-08T03:28:40.093Z,71.64
2018-08-08T03:29:45.634Z,71.64
2018-08-08T03:30:51.177Z,72.50
2018-08-08T03:31:56.728Z,72.50
2018-08-08T03:33:02.266Z,72.21
2018-08-08T03:34:07.808Z,71.92
2018-08-08T03:35:13.362Z,72.12
2018-08-08T03:36:18.917Z,71.73
2018-08-08T03:37:24.454Z,72.12
2018-08-08T03:38:29.990Z,72.12
2018-08-08T03:39:35.533Z,71.73
2018-08-08T03:40:41.079Z,71.92
2018-08-08T03:41:46.615Z,71.15
2018-08-08T03:42:52.189Z,71.06
2018-08-08T03:43:57.706Z,71.15
2018-08-08T03:45:03.253Z,70.96
2018-08-08T03:46:08.794Z,70.86
2018-08-08T03:47:14.336Z,71.06
2018-08-08T03:48:19.881Z,70.96
2018-08-08T03:49:25.424Z,71.44
2018-08-08T03:50:30.974Z,70.96
2018-08-08T03:51:36.514Z,71.15
2018-08-08T03:52:42.056Z,71.92
2018-08-08T03:53:47.605Z,71.34
2018-08-08T03:54:53.145Z,71.38
2018-08-08T03:55:58.692Z,72.06
2018-08-08T03:57:04.237Z,71.77
2018-08-08T03:58:09.785Z,71.19
2018-08-08T03:59:15.320Z,71.38
2018-08-08T04:00:20.866Z,71.67
2018-08-08T04:01:26.407Z,71.09
2018-08-08T04:02:32.005Z,71.19
2018-08-08T04:03:37.505Z,71.19
2018-08-08T04:04:43.045Z,71.38
2018-08-08T04:05:48.598Z,72.44
2018-08-08T04:06:54.134Z,73.02
2018-08-08T04:07:59.672Z,71.64
2018-08-08T04:09:05.217Z,71.58
2018-08-08T04:10:10.759Z,71.96
2018-08-08T04:11:16.310Z,72.44
2018-08-08T04:12:21.855Z,71.77
2018-08-08T04:13:27.395Z,71.67
2018-08-08T04:14:32.942Z,72.06
2018-08-08T04:15:38.488Z,71.67
2018-08-08T04:16:44.025Z,73.21
2018-08-08T04:17:49.567Z,73.50
2018-08-08T04:18:55.118Z,74.08
2018-08-08T04:20:00.656Z,72.92
2018-08-08T04:21:06.204Z,71.28
2018-08-08T04:22:11.744Z,71.48
2018-08-08T04:23:17.295Z,71.09
2018-08-08T04:24:22.840Z,71.32
2018-08-08T04:25:28.380Z,72.28
2018-08-08T04:26:33.919Z,71.61
2018-08-08T04:27:39.469Z,72.19
2018-08-08T04:28:45.009Z,71.80
2018-08-08T04:29:50.557Z,71.42
2018-08-08T04:30:56.103Z,71.90
2018-08-08T04:32:01.641Z,71.61
2018-08-08T04:33:07.184Z,71.80
2018-08-08T04:34:12.730Z,71.80
2018-08-08T04:35:18.277Z,72.00
2018-08-08T04:36:23.823Z,72.09
2018-08-08T04:37:29.365Z,71.51
2018-08-08T04:38:34.911Z,71.12
2018-08-08T04:39:40.454Z,71.84
2018-08-08T04:40:45.995Z,72.61
2018-08-08T04:41:51.539Z,72.22
2018-08-08T04:42:57.087Z,72.13
2018-08-08T04:44:02.634Z,71.64
2018-08-08T04:45:08.173Z,72.22
2018-08-08T04:46:13.718Z,72.52
2018-08-08T04:47:19.267Z,72.71
2018-08-08T04:48:24.808Z,73.96
2018-08-08T04:49:30.349Z,73.38
2018-08-08T04:50:35.901Z,73.61
2018-08-08T04:51:41.444Z,74.10
2018-08-08T04:52:46.988Z,73.90
2018-08-08T04:53:52.529Z,73.80
2018-08-08T04:54:58.071Z,75.45
2018-08-08T04:56:03.622Z,73.52
2018-08-08T04:57:09.165Z,74.68
2018-08-08T04:58:14.707Z,74.77
2018-08-08T04:59:20.254Z,74.48
2018-08-08T05:00:25.796Z,72.94
2018-08-08T05:01:31.342Z,73.61
2018-08-08T05:02:36.884Z,74.38
2018-08-08T05:03:42.429Z,73.32
2018-08-08T05:04:47.971Z,72.68
2018-08-08T05:05:53.517Z,72.10
2018-08-08T05:06:59.060Z,73.94
2018-08-08T05:08:04.617Z,73.65
2018-08-08T05:09:10.153Z,72.68
2018-08-08T05:10:15.697Z,74.42
2018-08-08T05:11:21.247Z,72.39
2018-08-08T05:12:26.789Z,71.04
2018-08-08T05:13:32.333Z,70.36
2018-08-08T05:14:37.878Z,70.56
2018-08-08T05:15:43.421Z,71.26
2018-08-08T05:16:48.966Z,71.94
2018-08-08T05:17:54.516Z,71.36
2018-08-08T05:19:00.070Z,71.75
2018-08-08T05:20:05.621Z,70.56
2018-08-08T05:21:11.144Z,71.72
2018-08-08T05:22:16.691Z,71.26
2018-08-08T05:23:22.238Z,70.84
2018-08-08T05:24:27.779Z,70.59
2018-08-08T05:25:33.331Z,72.81
2018-08-08T05:26:38.872Z,72.04
2018-08-08T05:27:44.418Z,71.46
2018-08-08T05:28:49.963Z,71.46
2018-08-08T05:29:55.502Z,71.56
2018-08-08T05:31:01.049Z,71.46
2018-08-08T05:32:06.601Z,71.26
2018-08-08T05:33:12.138Z,71.17
2018-08-08T05:34:17.689Z,71.75
2018-08-08T05:35:23.235Z,73.88
2018-08-08T05:36:28.773Z,73.49
2018-08-08T05:37:34.319Z,72.72
2018-08-08T05:38:39.868Z,73.39
2018-08-08T05:39:45.407Z,73.20
2018-08-08T05:40:50.958Z,72.33
2018-08-08T05:41:56.503Z,72.24
2018-08-08T05:43:02.128Z,72.04
2018-08-08T05:44:07.592Z,72.42
2018-08-08T05:45:13.135Z,73.20
2018-08-08T05:46:18.683Z,74.17
2018-08-08T05:47:24.230Z,72.91
2018-08-08T05:48:29.777Z,73.49
2018-08-08T05:49:35.316Z,73.10
2018-08-08T05:50:40.860Z,73.30
2018-08-08T05:51:46.413Z,74.07
2018-08-08T05:52:51.951Z,71.94
2018-08-08T05:53:57.497Z,72.14
2018-08-08T05:55:03.049Z,71.75
2018-08-08T05:56:08.590Z,72.14
2018-08-08T05:57:14.135Z,72.62
2018-08-08T05:58:19.676Z,72.24
2018-08-08T05:59:25.221Z,72.62
2018-08-08T06:00:30.780Z,73.30
2018-08-08T06:01:36.359Z,73.49
2018-08-08T06:02:41.861Z,74.30
2018-08-08T06:03:47.407Z,73.43
2018-08-08T06:04:52.951Z,73.33
2018-08-08T06:05:58.493Z,72.08
2018-08-08T06:07:04.040Z,72.66
2018-08-08T06:08:09.623Z,72.27
2018-08-08T06:09:15.132Z,71.88
2018-08-08T06:10:20.679Z,72.08
2018-08-08T06:11:26.225Z,71.98
2018-08-08T06:12:31.771Z,72.66
2018-08-08T06:13:37.305Z,71.98
2018-08-08T06:14:42.857Z,70.76
2018-08-08T06:15:48.404Z,70.95
2018-08-08T06:16:53.944Z,69.98
2018-08-08T06:17:59.491Z,70.56
2018-08-08T06:19:05.035Z,70.56
2018-08-08T06:20:10.585Z,70.60
2018-08-08T06:21:16.130Z,70.79
2018-08-08T06:22:21.673Z,70.40
2018-08-08T06:23:27.215Z,69.43
2018-08-08T06:24:32.767Z,70.79
2018-08-08T06:25:38.315Z,71.37
2018-08-08T06:26:43.857Z,70.73
2018-08-08T06:27:49.407Z,69.57
2018-08-08T06:28:54.946Z,68.60
2018-08-08T06:30:00.493Z,69.08
2018-08-08T06:31:06.041Z,69.37
2018-08-08T06:32:11.587Z,70.05
2018-08-08T06:33:17.143Z,68.89
2018-08-08T06:34:22.677Z,69.18
2018-08-08T06:35:28.220Z,69.67
2018-08-08T06:36:33.769Z,69.27
2018-08-08T06:37:39.311Z,68.79
2018-08-08T06:38:44.860Z,69.18
2018-08-08T06:39:50.402Z,69.08
2018-08-08T06:40:55.947Z,69.76
2018-08-08T06:42:01.499Z,69.08
2018-08-08T06:43:07.048Z,69.37
2018-08-08T06:44:12.619Z,68.21
2018-08-08T06:45:18.133Z,68.89
2018-08-08T06:46:23.674Z,69.18
2018-08-08T06:47:29.228Z,69.08
2018-08-08T06:48:34.912Z,69.76
2018-08-08T06:49:40.313Z,70.34
2018-08-08T06:50:45.862Z,69.57
2018-08-08T06:51:51.410Z,69.67
2018-08-08T06:52:57.004Z,68.89
2018-08-08T06:54:02.503Z,70.63
2018-08-08T06:55:08.046Z,69.95
2018-08-08T06:56:13.587Z,69.85
2018-08-08T06:57:19.132Z,69.47
2018-08-08T06:58:24.685Z,70.09
2018-08-08T06:59:30.231Z,69.70
2018-08-08T07:00:35.777Z,71.12
2018-08-08T07:01:41.316Z,72.22
2018-08-08T07:02:46.862Z,69.79
2018-08-08T07:03:52.410Z,69.85
2018-08-08T07:04:57.961Z,70.28
2018-08-08T07:06:03.505Z,69.50
2018-08-08T07:07:09.048Z,70.37
2018-08-08T07:08:14.599Z,70.37
2018-08-08T07:09:20.146Z,70.86
2018-08-08T07:10:25.684Z,71.54
2018-08-08T07:11:31.230Z,72.22
2018-08-08T07:12:36.776Z,70.67
2018-08-08T07:13:42.324Z,70.09
2018-08-08T07:14:47.872Z,70.21
2018-08-08T07:15:53.427Z,68.86
2018-08-08T07:16:58.959Z,69.83
2018-08-08T07:18:04.508Z,69.44
2018-08-08T07:19:10.058Z,69.24
2018-08-08T07:20:15.603Z,69.15
2018-08-08T07:21:21.149Z,69.34
2018-08-08T07:22:26.710Z,68.76
2018-08-08T07:23:32.240Z,68.66
2018-08-08T07:24:37.820Z,69.09
2018-08-08T07:25:43.350Z,69.24
2018-08-08T07:26:48.874Z,68.31
2018-08-08T07:27:54.424Z,67.92
2018-08-08T07:28:59.967Z,67.92
2018-08-08T07:30:05.565Z,68.12
2018-08-08T07:31:11.063Z,68.21
2018-08-08T07:32:16.670Z,68.12
2018-08-08T07:33:22.153Z,68.02
2018-08-08T07:34:27.708Z,67.14
2018-08-08T07:35:33.252Z,66.47
2018-08-08T07:36:38.799Z,67.73
2018-08-08T07:37:44.340Z,67.05
2018-08-08T07:38:49.885Z,67.05
2018-08-08T07:39:55.471Z,67.28
2018-08-08T07:41:00.986Z,67.28
2018-08-08T07:42:06.532Z,66.99
2018-08-08T07:43:12.070Z,66.89
2018-08-08T07:44:17.620Z,67.18
2018-08-08T07:45:23.172Z,66.02
2018-08-08T07:46:28.710Z,66.30
2018-08-08T07:47:34.271Z,67.76
2018-08-08T07:48:39.811Z,65.47
2018-08-08T07:49:45.352Z,64.69
2018-08-08T07:50:50.899Z,65.75
2018-08-08T07:51:56.454Z,65.47
2018-08-08T07:53:01.995Z,66.17
2018-08-08T07:54:07.536Z,65.89
2018-08-08T07:55:13.081Z,65.11
2018-08-08T07:56:18.628Z,65.04
2018-08-08T07:57:24.176Z,63.23
2018-08-08T07:58:29.742Z,64.00
2018-08-08T07:59:35.271Z,62.64
2018-08-08T08:00:40.817Z,61.28
2018-08-08T08:01:46.363Z,62.77
2018-08-08T08:02:51.912Z,60.44
2018-08-08T08:03:57.458Z,60.66
2018-08-08T08:05:03.013Z,60.85
2018-08-08T08:06:08.558Z,63.39
2018-08-08T08:07:14.098Z,62.35
2018-08-08T08:08:19.649Z,60.39
2018-08-08T08:09:25.197Z,57.76
2018-08-08T08:10:30.742Z,58.35
2018-08-08T08:11:36.291Z,58.45
2018-08-08T08:12:41.861Z,56.33
2018-08-08T08:13:47.384Z,57.89
2018-08-08T08:14:52.931Z,57.79
2018-08-08T08:15:58.476Z,56.62
2018-08-08T08:17:04.040Z,56.43
2018-08-08T08:18:09.576Z,56.04
2018-08-08T08:19:15.124Z,57.01
2018-08-08T08:20:20.850Z,56.43
2018-08-08T08:21:26.221Z,58.58
2018-08-08T08:22:31.769Z,55.07
2018-08-08T08:23:37.322Z,55.58
2018-08-08T08:24:42.862Z,55.58
2018-08-08T08:25:48.412Z,55.97
2018-08-08T08:26:53.954Z,54.50
2018-08-08T08:27:59.508Z,54.31
2018-08-08T08:29:05.050Z,54.11
2018-08-08T08:30:10.603Z,56.46
2018-08-08T08:31:16.147Z,53.85
2018-08-08T08:32:21.798Z,54.50
2018-08-08T08:33:27.242Z,54.05
2018-08-08T08:34:32.796Z,53.66
2018-08-08T08:35:38.340Z,54.93
2018-08-08T08:36:43.915Z,53.27
2018-08-08T08:37:49.442Z,52.48
2018-08-08T08:38:54.984Z,52.97
2018-08-08T08:40:00.531Z,56.68
2018-08-08T08:41:06.078Z,53.75
2018-08-08T08:42:11.633Z,54.83
2018-08-08T08:43:17.176Z,52.97
2018-08-08T08:44:22.727Z,51.80
2018-08-08T08:45:28.275Z,51.90
2018-08-08T08:46:33.830Z,52.87
2018-08-08T08:47:39.369Z,52.29
2018-08-08T08:48:44.912Z,52.97
2018-08-08T08:49:50.511Z,51.80
2018-08-08T08:50:56.010Z,53.27
2018-08-08T08:52:01.564Z,54.36
2018-08-08T08:53:07.108Z,52.70
2018-08-08T08:54:12.659Z,52.12
2018-08-08T08:55:18.210Z,51.73
2018-08-08T08:56:23.751Z,50.85
2018-08-08T08:57:29.308Z,51.07
2018-08-08T08:58:34.856Z,52.64
2018-08-08T08:59:40.406Z,51.95
2018-08-08T09:00:45.946Z,54.59
2018-08-08T09:01:51.500Z,51.86
2018-08-08T09:02:57.048Z,53.61
2018-08-08T09:04:02.602Z,52.73
2018-08-08T09:05:08.147Z,52.05
2018-08-08T09:06:13.718Z,53.34
2018-08-08T09:07:19.276Z,50.81
2018-08-08T09:08:24.789Z,52.76
2018-08-08T09:09:30.340Z,51.10
2018-08-08T09:10:35.891Z,49.61
2018-08-08T09:11:41.435Z,50.12
2018-08-08T09:12:46.986Z,49.63
2018-08-08T09:13:52.531Z,50.20
2018-08-08T09:14:58.097Z,50.98
2018-08-08T09:16:03.629Z,50.98
2018-08-08T09:17:09.176Z,50.39
2018-08-08T09:18:14.728Z,48.94
2018-08-08T09:19:20.278Z,50.42
2018-08-08T09:20:25.822Z,49.82
2018-08-08T09:21:31.373Z,49.24
2018-08-08T09:22:36.920Z,51.90
2018-08-08T09:23:42.472Z,51.03
2018-08-08T09:24:48.023Z,48.68
2018-08-08T09:25:53.569Z,48.90
2018-08-08T09:26:59.122Z,47.33
2018-08-08T09:28:04.764Z,46.75
2018-08-08T09:29:10.216Z,47.92
2018-08-08T09:30:15.766Z,49.68
2018-08-08T09:31:21.319Z,51.05
2018-08-08T09:32:26.864Z,47.72
2018-08-08T09:33:32.416Z,49.51
2018-08-08T09:34:37.969Z,52.15
2018-08-08T09:35:43.522Z,50.98
2018-08-08T09:36:49.065Z,50.88
2018-08-08T09:37:54.616Z,45.20
2018-08-08T09:39:00.159Z,49.31
2018-08-08T09:40:05.747Z,47.43
2018-08-08T09:41:11.258Z,46.36
2018-08-08T09:42:16.812Z,48.80
2018-08-08T09:43:22.361Z,48.11
2018-08-08T09:44:27.909Z,47.50
2018-08-08T09:45:33.454Z,48.68
2018-08-08T09:46:39.004Z,47.70
2018-08-08T09:47:44.561Z,49.46
2018-08-08T09:48:50.110Z,47.63
2018-08-08T09:49:55.661Z,47.43
2018-08-08T09:51:01.205Z,48.80
2018-08-08T09:52:06.749Z,50.85
2018-08-08T09:53:12.305Z,50.66
2018-08-08T09:54:17.846Z,49.21
2018-08-08T09:55:23.403Z,49.90
2018-08-08T09:56:28.968Z,51.07
2018-08-08T09:57:34.503Z,45.20
2018-08-08T09:58:40.051Z,47.65
2018-08-08T09:59:45.596Z,46.55
2018-08-08T10:00:51.151Z,46.36
2018-08-08T10:01:56.707Z,46.45
2018-08-08T10:03:02.248Z,48.41
2018-08-08T10:04:08.022Z,50.37
2018-08-08T10:05:13.344Z,45.67
2018-08-08T10:06:18.903Z,46.36
2018-08-08T10:07:24.442Z,46.77
2018-08-08T10:08:30.016Z,45.50
2018-08-08T10:09:35.538Z,46.97
2018-08-08T10:10:41.096Z,46.28
2018-08-08T10:11:46.645Z,45.62
2018-08-08T10:12:52.197Z,46.11
2018-08-08T10:13:57.739Z,45.34
2018-08-08T10:15:04.855Z,46.33
2018-08-08T10:16:08.840Z,48.28
2018-08-08T10:17:14.390Z,48.09
2018-08-08T10:18:19.944Z,43.90
2018-08-08T10:19:25.493Z,43.70
2018-08-08T10:20:31.036Z,44.88
2018-08-08T10:21:36.589Z,45.56
2018-08-08T10:22:42.146Z,44.29
2018-08-08T10:23:47.688Z,46.44
2018-08-08T10:24:53.242Z,47.91
2018-08-08T10:25:58.790Z,43.80
2018-08-08T10:27:04.423Z,42.21
2018-08-08T10:28:09.887Z,48.11
2018-08-08T10:29:15.437Z,47.62
2018-08-08T10:30:20.989Z,48.30
2018-08-08T10:31:26.541Z,46.84
2018-08-08T10:32:32.093Z,45.68
2018-08-08T10:33:37.725Z,44.80
2018-08-08T10:34:43.197Z,44.90
2018-08-08T10:35:48.738Z,45.00
2018-08-08T10:36:54.280Z,41.64
2018-08-08T10:37:59.843Z,39.88
2018-08-08T10:39:05.385Z,41.25
2018-08-08T10:40:10.939Z,46.42
2018-08-08T10:41:16.487Z,44.66
2018-08-08T10:42:22.038Z,44.07
2018-08-08T10:43:27.593Z,44.17
2018-08-08T10:44:33.138Z,44.85
2018-08-08T10:45:38.690Z,47.40
2018-08-08T10:46:44.240Z,44.85
2018-08-08T10:47:49.811Z,45.42
2018-08-08T10:48:55.334Z,45.54
2018-08-08T10:50:00.888Z,48.09
2018-08-08T10:51:06.435Z,46.59
2018-08-08T10:52:11.993Z,45.54
2018-08-08T10:53:17.539Z,45.32
2018-08-08T10:54:23.090Z,47.69
2018-08-08T10:55:28.641Z,46.03
2018-08-08T10:56:34.189Z,45.73
2018-08-08T10:57:39.738Z,46.03
2018-08-08T10:58:45.292Z,47.81
2018-08-08T10:59:50.834Z,43.60
2018-08-08T11:00:56.447Z,44.09
2018-08-08T11:02:01.945Z,43.70
2018-08-08T11:03:07.521Z,43.90
2018-08-08T11:04:13.031Z,43.70
2018-08-08T11:05:18.589Z,46.27
2018-08-08T11:06:24.150Z,45.09
2018-08-08T11:07:29.881Z,45.59
2018-08-08T11:08:35.234Z,44.12
2018-08-08T11:09:40.793Z,43.33
2018-08-08T11:10:46.334Z,44.90
2018-08-08T11:11:52.260Z,42.55
2018-08-08T11:12:57.439Z,43.33
2018-08-08T11:14:02.991Z,46.66
2018-08-08T11:15:08.542Z,44.12
2018-08-08T11:16:14.090Z,43.04
2018-08-08T11:17:19.783Z,40.88
2018-08-08T11:18:25.201Z,42.25
2018-08-08T11:19:30.740Z,39.03
2018-08-08T11:20:36.290Z,43.65
2018-08-08T11:21:41.834Z,38.54
2018-08-08T11:22:47.396Z,42.27
2018-08-08T11:23:52.948Z,43.26
2018-08-08T11:24:58.484Z,42.96
2018-08-08T11:26:04.033Z,45.80
2018-08-08T11:27:09.583Z,41.29
2018-08-08T11:28:15.135Z,38.74
2018-08-08T11:29:20.692Z,42.66
2018-08-08T11:30:26.294Z,44.13
2018-08-08T11:31:31.790Z,42.37
2018-08-08T11:32:37.336Z,44.73
2018-08-08T11:33:42.887Z,38.54
2018-08-08T11:34:48.438Z,38.66
2018-08-08T11:35:53.986Z,41.80
2018-08-08T11:36:59.605Z,41.39
2018-08-08T11:38:05.098Z,40.53
2018-08-08T11:39:10.637Z,40.90
2018-08-08T11:40:16.186Z,42.37
2018-08-08T11:41:21.741Z,39.72
2018-08-08T11:42:27.286Z,42.00
2018-08-08T11:43:32.889Z,41.31
2018-08-08T11:44:38.393Z,38.37
2018-08-08T11:45:43.939Z,41.41
2018-08-08T11:46:49.496Z,40.82
2018-08-08T11:47:55.038Z,40.03
2018-08-08T11:49:00.590Z,40.43
2018-08-08T11:50:06.146Z,38.07
2018-08-08T11:51:11.697Z,40.92
2018-08-08T11:52:17.241Z,39.74
2018-08-08T11:53:22.797Z,37.88
2018-08-08T11:54:28.344Z,39.35
2018-08-08T11:55:33.898Z,40.53
2018-08-08T11:56:39.448Z,38.56
2018-08-08T11:57:44.992Z,40.74
2018-08-08T11:58:50.631Z,39.47
2018-08-08T11:59:56.101Z,39.17
2018-08-08T12:01:01.648Z,38.27
2018-08-08T12:02:07.209Z,36.40
2018-08-08T12:03:12.748Z,36.70
2018-08-08T12:04:18.305Z,35.82
2018-08-08T12:05:23.845Z,37.38
2018-08-08T12:06:29.399Z,37.19
2018-08-08T12:07:34.952Z,35.62
2018-08-08T12:08:40.495Z,35.42
2018-08-08T12:09:46.048Z,34.83
2018-08-08T12:10:51.595Z,38.37
2018-08-08T12:11:57.152Z,36.70
2018-08-08T12:13:02.700Z,38.07
2018-08-08T12:14:08.247Z,36.51
2018-08-08T12:15:13.804Z,38.17
2018-08-08T12:16:19.349Z,37.17
2018-08-08T12:17:24.897Z,39.14
2018-08-08T12:18:30.447Z,38.06
2018-08-08T12:19:35.997Z,37.56
2018-08-08T12:20:41.551Z,37.17
2018-08-08T12:21:47.113Z,38.04
2018-08-08T12:22:52.665Z,39.03
2018-08-08T12:23:58.198Z,38.13
2018-08-08T12:25:03.752Z,38.72
2018-08-08T12:26:09.301Z,39.31
2018-08-08T12:27:14.852Z,40.58
2018-08-08T12:28:20.404Z,39.70
2018-08-08T12:29:25.946Z,41.47
2018-08-08T12:30:31.496Z,40.68
2018-08-08T12:31:37.118Z,41.25
2018-08-08T12:32:42.608Z,42.23
2018-08-08T12:33:48.151Z,40.86
2018-08-08T12:34:53.698Z,41.25
2018-08-08T12:35:59.254Z,43.41
2018-08-08T12:37:04.808Z,42.33
2018-08-08T12:38:10.349Z,40.55
2018-08-08T12:39:15.912Z,41.82
2018-08-08T12:40:21.497Z,42.41
2018-08-08T12:41:26.999Z,41.23
2018-08-08T12:42:32.558Z,43.48
2018-08-08T12:43:38.100Z,41.89
2018-08-08T12:44:43.732Z,42.97
2018-08-08T12:45:49.203Z,42.97
2018-08-08T12:46:54.751Z,43.15
2018-08-08T12:48:00.297Z,43.84
2018-08-08T12:49:05.854Z,43.54
2018-08-08T12:50:11.403Z,44.89
2018-08-08T12:51:16.951Z,44.10
2018-08-08T12:52:22.496Z,45.76
2018-08-08T12:53:28.111Z,45.57
2018-08-08T12:54:33.595Z,45.65
2018-08-08T12:55:39.144Z,45.36
2018-08-08T12:56:44.702Z,45.26
2018-08-08T12:57:50.244Z,45.06
2018-08-08T12:58:55.798Z,46.33
2018-08-08T13:00:01.350Z,45.65
2018-08-08T13:01:06.890Z,46.26
2018-08-08T13:02:12.533Z,44.96
2018-08-08T13:03:17.997Z,46.16
2018-08-08T13:04:23.583Z,45.76
2018-08-08T13:05:29.097Z,45.79
2018-08-08T13:06:34.660Z,46.57
2018-08-08T13:07:40.197Z,46.57
2018-08-08T13:08:45.747Z,45.89
2018-08-08T13:09:51.295Z,45.10
2018-08-08T13:10:56.844Z,44.62
2018-08-08T13:12:02.388Z,44.23
2018-08-08T13:13:07.936Z,44.23
2018-08-08T13:14:13.619Z,45.79
2018-08-08T13:15:19.049Z,44.62
2018-08-08T13:16:24.587Z,43.73
2018-08-08T13:17:30.147Z,43.63
2018-08-08T13:18:35.683Z,43.05
2018-08-08T13:19:41.235Z,43.34
2018-08-08T13:20:46.784Z,44.03
2018-08-08T13:21:52.340Z,43.07
2018-08-08T13:22:57.881Z,43.37
2018-08-08T13:24:03.465Z,41.60
2018-08-08T13:25:08.986Z,41.50
2018-08-08T13:26:14.541Z,41.49
2018-08-08T13:27:20.079Z,41.99
2018-08-08T13:28:25.659Z,41.80
2018-08-08T13:29:31.177Z,41.89
2018-08-08T13:30:36.733Z,42.29
2018-08-08T13:31:42.285Z,42.09
2018-08-08T13:32:47.829Z,41.23
2018-08-08T13:33:53.429Z,41.92
2018-08-08T13:34:58.934Z,40.72
2018-08-08T13:36:04.485Z,40.74
2018-08-08T13:37:10.028Z,40.74
2018-08-08T13:38:15.573Z,40.16
2018-08-08T13:39:21.221Z,40.94
2018-08-08T13:40:26.676Z,41.33
2018-08-08T13:41:32.228Z,41.23
2018-08-08T13:42:37.778Z,41.60
2018-08-08T13:43:43.325Z,41.02
2018-08-08T13:44:48.871Z,41.21
2018-08-08T13:45:54.418Z,41.60
2018-08-08T13:46:59.965Z,41.99
2018-08-08T13:48:05.521Z,41.78
2018-08-08T13:49:11.071Z,41.78
2018-08-08T13:50:16.624Z,44.24
2018-08-08T13:51:22.167Z,43.76
2018-08-08T13:52:27.725Z,43.34
2018-08-08T13:53:33.264Z,42.29
2018-08-08T13:54:38.818Z,42.19
2018-08-08T13:55:44.362Z,41.60
2018-08-08T13:56:49.919Z,41.70
2018-08-08T13:57:55.464Z,41.31
2018-08-08T13:59:01.016Z,42.09
2018-08-08T14:00:06.559Z,41.13
2018-08-08T14:01:12.133Z,41.42
2018-08-08T14:02:17.663Z,42.11
2018-08-08T14:03:23.210Z,40.74